Time,TemperatureF,DewpointF,PressureIn,WindDirection,WindDirectionDegrees,WindSpeedMPH,WindSpeedGustMPH,Humidity,HourlyPrecipIn,Conditions,Clouds,dailyrainin,SoftwareType,DateUTC
2013-02-03 00:01:00,34.3,32.2,29.86,NE,45,0.0,2.7,92,0.00,,,0.00,WUHU21623XXSP,2013-02-03 08:01:00,
2013-02-03 00:06:00,34.2,32.0,29.86,NE,45,0.0,2.7,92,0.00,,,0.00,WUHU21623XXSP,2013-02-03 08:06:00,
2013-02-03 00:11:00,34.2,32.0,29.86,NNE,21,3.4,14.1,92,0.00,,,0.00,WUHU21623XXSP,2013-02-03 08:11:00,
2013-02-03 00:16:00,34.2,32.3,29.85,NE,47,2.0,14.1,93,0.00,,,0.00,WUHU21623XXSP,2013-02-03 08:16:00,
2013-02-03 00:21:00,34.3,32.5,29.85,East,90,1.0,14.1,93,0.00,,,0.00,WUHU21623XXSP,2013-02-03 08:21:00,
2013-02-03 00:26:00,34.3,32.5,29.85,ESE,107,1.3,14.1,93,0.00,,,0.00,WUHU21623XXSP,2013-02-03 08:26:00,
2013-02-03 00:31:00,34.3,32.5,29.86,East,90,0.0,14.1,93,0.00,,,0.00,WUHU21623XXSP,2013-02-03 08:31:00,
2013-02-03 00:36:00,34.3,32.5,29.86,East,90,0.0,1.8,93,0.00,,,0.00,WUHU21623XXSP,2013-02-03 08:36:00,
2013-02-03 00:41:00,34.3,32.5,29.86,NNW,337,14.1,14.1,93,0.00,,,0.00,WUHU21623XXSP,2013-02-03 08:41:00,
2013-02-03 00:46:00,34.3,32.5,29.86,ENE,67,0.0,14.1,93,0.00,,,0.00,WUHU21623XXSP,2013-02-03 08:46:00,
2013-02-03 00:51:00,34.3,32.5,29.86,NNW,337,14.1,14.1,93,0.00,,,0.00,WUHU21623XXSP,2013-02-03 08:51:00,
2013-02-03 00:56:00,34.3,32.5,29.85,ENE,67,0.0,14.1,93,0.00,,,0.00,WUHU21623XXSP,2013-02-03 08:56:00,
2013-02-03 01:01:00,34.3,32.5,29.85,NE,45,1.6,14.1,93,0.00,,,0.00,WUHU21623XXSP,2013-02-03 09:01:00,
2013-02-03 01:06:00,34.5,32.6,29.85,NE,45,0.9,14.1,93,0.00,,,0.00,WUHU21623XXSP,2013-02-03 09:06:00,
2013-02-03 01:11:00,34.7,32.8,29.86,WSW,247,1.3,14.1,93,0.00,,,0.00,WUHU21623XXSP,2013-02-03 09:11:00,
2013-02-03 01:16:00,34.9,33.0,29.86,WSW,247,1.6,14.1,93,0.00,,,0.00,WUHU21623XXSP,2013-02-03 09:16:00,
2013-02-03 01:21:00,34.9,33.3,29.85,West,270,0.0,1.6,94,0.00,,,0.00,WUHU21623XXSP,2013-02-03 09:21:00,
2013-02-03 01:26:00,34.9,33.3,29.85,West,270,0.0,0.0,94,0.00,,,0.00,WUHU21623XXSP,2013-02-03 09:26:00,
2013-02-03 01:31:00,34.9,33.3,29.85,West,270,0.0,0.0,94,0.00,,,0.00,WUHU21623XXSP,2013-02-03 09:31:00,
2013-02-03 01:36:00,34.9,33.3,29.86,West,270,0.0,0.0,94,0.00,,,0.00,WUHU21623XXSP,2013-02-03 09:36:00,
2013-02-03 01:41:00,35.2,33.6,29.86,WSW,247,0.0,0.0,94,0.00,,,0.00,WUHU21623XXSP,2013-02-03 09:41:00,
2013-02-03 01:46:00,35.2,33.6,29.85,South,180,0.0,0.0,94,0.00,,,0.00,WUHU21623XXSP,2013-02-03 09:46:00,
2013-02-03 01:53:00,35.2,33.6,29.86,SSW,202,0.0,0.0,94,0.00,,,0.00,WUHU21623XXSP,2013-02-03 09:53:00,
2013-02-03 01:58:00,35.4,33.8,29.86,WSW,247,1.4,2.0,94,0.00,,,0.00,WUHU21623XXSP,2013-02-03 09:58:00,
2013-02-03 02:03:00,35.2,33.6,29.86,WSW,247,1.1,2.7,94,0.00,,,0.00,WUHU21623XXSP,2013-02-03 10:03:00,
2013-02-03 02:08:00,35.2,33.6,29.86,WSW,247,0.0,2.7,94,0.00,,,0.00,WUHU21623XXSP,2013-02-03 10:08:00,
2013-02-03 02:13:00,35.2,33.6,29.85,WSW,247,0.0,14.1,94,0.00,,,0.00,WUHU21623XXSP,2013-02-03 10:13:00,
2013-02-03 02:18:00,34.7,32.8,29.85,WSW,247,0.0,14.1,93,0.00,,,0.00,WUHU21623XXSP,2013-02-03 10:18:00,
2013-02-03 02:23:00,34.5,32.6,29.86,WSW,247,0.0,0.0,93,0.00,,,0.00,WUHU21623XXSP,2013-02-03 10:23:00,
2013-02-03 02:28:00,34.3,32.5,29.85,WSW,247,0.0,0.0,93,0.00,,,0.00,WUHU21623XXSP,2013-02-03 10:28:00,
2013-02-03 02:33:00,34.2,32.3,29.86,WSW,247,0.0,0.0,93,0.00,,,0.00,WUHU21623XXSP,2013-02-03 10:33:00,
2013-02-03 02:38:00,34.0,32.1,29.86,WSW,247,0.0,0.0,93,0.00,,,0.00,WUHU21623XXSP,2013-02-03 10:38:00,
2013-02-03 02:43:00,34.2,32.3,29.85,WSW,247,0.0,0.0,93,0.00,,,0.00,WUHU21623XXSP,2013-02-03 10:43:00,
2013-02-03 02:48:00,34.2,32.3,29.86,WSW,247,0.0,0.0,93,0.00,,,0.00,WUHU21623XXSP,2013-02-03 10:48:00,
2013-02-03 02:53:00,34.3,32.5,29.85,West,270,0.0,0.0,93,0.00,,,0.00,WUHU21623XXSP,2013-02-03 10:53:00,
2013-02-03 02:58:00,34.3,32.5,29.85,West,270,0.0,0.0,93,0.00,,,0.00,WUHU21623XXSP,2013-02-03 10:58:00,
2013-02-03 03:03:00,34.2,32.3,29.85,West,270,0.0,0.0,93,0.00,,,0.00,WUHU21623XXSP,2013-02-03 11:03:00,
2013-02-03 03:08:00,34.2,32.3,29.85,West,270,0.0,0.0,93,0.00,,,0.00,WUHU21623XXSP,2013-02-03 11:08:00,
2013-02-03 03:13:00,34.2,32.3,29.85,West,270,0.0,0.0,93,0.00,,,0.00,WUHU21623XXSP,2013-02-03 11:13:00,
2013-02-03 03:18:00,34.2,32.3,29.85,West,270,0.0,0.0,93,0.00,,,0.00,WUHU21623XXSP,2013-02-03 11:18:00,
2013-02-03 03:23:00,34.2,32.3,29.85,West,270,0.0,0.0,93,0.00,,,0.00,WUHU21623XXSP,2013-02-03 11:23:00,
2013-02-03 03:28:00,34.3,32.5,29.85,West,270,0.0,0.0,93,0.00,,,0.00,WUHU21623XXSP,2013-02-03 11:28:00,
2013-02-03 03:33:00,34.3,32.5,29.84,West,270,0.0,0.0,93,0.00,,,0.00,WUHU21623XXSP,2013-02-03 11:33:00,
2013-02-03 03:38:00,34.3,32.5,29.85,West,270,0.0,0.0,93,0.00,,,0.00,WUHU21623XXSP,2013-02-03 11:38:00,
2013-02-03 03:43:00,34.3,32.5,29.85,NW,315,0.9,1.1,93,0.00,,,0.00,WUHU21623XXSP,2013-02-03 11:43:00,
2013-02-03 03:48:00,34.3,32.5,29.85,NW,315,0.0,1.1,93,0.00,,,0.00,WUHU21623XXSP,2013-02-03 11:48:00,
2013-02-03 03:53:00,34.5,32.6,29.86,NNW,337,1.4,1.6,93,0.00,,,0.00,WUHU21623XXSP,2013-02-03 11:53:00,
2013-02-03 03:58:00,34.7,32.8,29.85,North,0,0.0,1.6,93,0.00,,,0.00,WUHU21623XXSP,2013-02-03 11:58:00,
2013-02-03 04:03:00,34.9,33.0,29.85,NNW,345,1.1,1.1,93,0.00,,,0.00,WUHU21623XXSP,2013-02-03 12:03:00,
2013-02-03 04:08:00,34.9,33.3,29.85,West,270,0.9,1.3,94,0.00,,,0.00,WUHU21623XXSP,2013-02-03 12:08:00,
2013-02-03 04:13:00,35.2,33.6,29.85,NNW,337,0.0,1.3,94,0.00,,,0.00,WUHU21623XXSP,2013-02-03 12:13:00,
2013-02-03 04:18:00,35.4,33.8,29.85,NE,45,1.5,1.8,94,0.00,,,0.00,WUHU21623XXSP,2013-02-03 12:18:00,
2013-02-03 04:23:00,35.4,33.8,29.84,NE,45,0.0,1.8,94,0.00,,,0.00,WUHU21623XXSP,2013-02-03 12:23:00,
2013-02-03 04:28:00,35.8,34.2,29.84,NE,45,0.0,0.0,94,0.00,,,0.00,WUHU21623XXSP,2013-02-03 12:28:00,
2013-02-03 04:33:00,35.8,34.2,29.84,NE,45,0.0,0.0,94,0.00,,,0.00,WUHU21623XXSP,2013-02-03 12:33:00,
2013-02-03 04:38:00,35.8,34.2,29.84,NE,45,0.0,0.0,94,0.00,,,0.00,WUHU21623XXSP,2013-02-03 12:38:00,
2013-02-03 04:43:00,36.0,34.3,29.85,NE,45,0.0,0.0,94,0.00,,,0.00,WUHU21623XXSP,2013-02-03 12:43:00,
2013-02-03 04:48:00,36.1,34.5,29.85,NE,45,0.0,0.0,94,0.00,,,0.00,WUHU21623XXSP,2013-02-03 12:48:00,
2013-02-03 04:53:00,36.1,34.5,29.85,NE,45,0.0,0.0,94,0.00,,,0.00,WUHU21623XXSP,2013-02-03 12:53:00,
2013-02-03 04:58:00,36.3,34.7,29.85,NE,45,0.0,0.0,94,0.00,,,0.00,WUHU21623XXSP,2013-02-03 12:58:00,
2013-02-03 05:03:00,36.3,34.7,29.85,NE,45,0.0,0.0,94,0.00,,,0.00,WUHU21623XXSP,2013-02-03 13:03:00,
2013-02-03 05:08:00,36.3,34.7,29.85,NE,45,0.0,14.1,94,0.00,,,0.00,WUHU21623XXSP,2013-02-03 13:08:00,
2013-02-03 05:13:00,36.5,34.9,29.86,NNW,337,14.1,14.1,94,0.00,,,0.00,WUHU21623XXSP,2013-02-03 13:13:00,
2013-02-03 05:18:00,36.5,34.9,29.85,NE,45,0.0,14.1,94,0.00,,,0.00,WUHU21623XXSP,2013-02-03 13:18:00,
2013-02-03 05:23:00,36.7,35.1,29.86,NNE,22,0.0,14.1,94,0.00,,,0.00,WUHU21623XXSP,2013-02-03 13:23:00,
2013-02-03 05:28:00,36.7,35.1,29.86,NE,45,2.0,2.0,94,0.00,,,0.00,WUHU21623XXSP,2013-02-03 13:28:00,
2013-02-03 05:33:00,36.7,35.1,29.87,NNE,22,0.0,2.0,94,0.00,,,0.00,WUHU21623XXSP,2013-02-03 13:33:00,
2013-02-03 05:38:00,36.9,35.2,29.87,NNE,22,0.0,2.0,94,0.00,,,0.00,WUHU21623XXSP,2013-02-03 13:38:00,
2013-02-03 05:43:00,36.9,35.2,29.86,NNE,22,0.0,0.0,94,0.00,,,0.00,WUHU21623XXSP,2013-02-03 13:43:00,
2013-02-03 05:48:00,36.9,35.2,29.86,NNE,22,0.0,0.0,94,0.00,,,0.00,WUHU21623XXSP,2013-02-03 13:48:00,
2013-02-03 05:53:00,37.0,35.4,29.86,NNE,22,0.0,14.1,94,0.00,,,0.00,WUHU21623XXSP,2013-02-03 13:53:00,
2013-02-03 05:58:00,37.0,35.4,29.86,NE,52,1.3,14.1,94,0.00,,,0.00,WUHU21623XXSP,2013-02-03 13:58:00,
2013-02-03 06:03:00,37.0,35.4,29.87,NE,45,1.5,2.0,94,0.00,,,0.00,WUHU21623XXSP,2013-02-03 14:03:00,
2013-02-03 06:08:00,37.2,35.6,29.87,NE,45,0.0,14.1,94,0.00,,,0.00,WUHU21623XXSP,2013-02-03 14:08:00,
2013-02-03 06:13:00,37.2,35.6,29.87,East,79,1.2,14.1,94,0.00,,,0.00,WUHU21623XXSP,2013-02-03 14:13:00,
2013-02-03 06:18:00,37.2,35.6,29.86,East,90,0.0,1.3,94,0.00,,,0.00,WUHU21623XXSP,2013-02-03 14:18:00,
2013-02-03 06:23:00,37.2,35.6,29.87,ESE,104,1.5,2.2,94,0.00,,,0.00,WUHU21623XXSP,2013-02-03 14:23:00,
2013-02-03 06:28:00,37.2,35.6,29.87,ENE,67,0.0,2.2,94,0.00,,,0.00,WUHU21623XXSP,2013-02-03 14:28:00,
2013-02-03 06:33:00,37.2,35.9,29.87,ENE,67,0.0,0.0,95,0.00,,,0.00,WUHU21623XXSP,2013-02-03 14:33:00,
2013-02-03 06:38:00,37.4,36.0,29.87,East,90,0.0,0.0,95,0.00,,,0.00,WUHU21623XXSP,2013-02-03 14:38:00,
2013-02-03 06:43:00,37.6,36.2,29.87,East,90,0.0,0.0,95,0.00,,,0.00,WUHU21623XXSP,2013-02-03 14:43:00,
2013-02-03 06:48:00,37.6,36.2,29.87,East,90,0.0,0.0,95,0.00,,,0.00,WUHU21623XXSP,2013-02-03 14:48:00,
2013-02-03 06:53:00,37.8,36.4,29.87,East,90,0.0,0.0,95,0.00,,,0.00,WUHU21623XXSP,2013-02-03 14:53:00,
2013-02-03 06:58:00,37.8,36.4,29.86,SE,135,0.0,0.9,95,0.00,,,0.00,WUHU21623XXSP,2013-02-03 14:58:00,
2013-02-03 07:03:00,37.8,36.4,29.86,SE,135,0.0,0.9,95,0.00,,,0.00,WUHU21623XXSP,2013-02-03 15:03:00,
2013-02-03 07:08:00,37.8,36.4,29.86,SE,135,0.0,0.0,95,0.00,,,0.00,WUHU21623XXSP,2013-02-03 15:08:00,
2013-02-03 07:13:00,37.8,36.4,29.85,SE,135,0.0,0.0,95,0.00,,,0.00,WUHU21623XXSP,2013-02-03 15:13:00,
2013-02-03 07:18:00,37.9,36.3,29.85,SE,135,0.0,0.0,94,0.00,,,0.00,WUHU21623XXSP,2013-02-03 15:18:00,
2013-02-03 07:23:00,37.9,36.6,29.85,SE,135,0.0,0.0,95,0.00,,,0.00,WUHU21623XXSP,2013-02-03 15:23:00,
2013-02-03 07:28:00,37.9,36.6,29.85,SSE,157,0.0,0.0,95,0.00,,,0.00,WUHU21623XXSP,2013-02-03 15:28:00,
2013-02-03 07:33:00,37.9,36.6,29.85,SSE,157,0.0,0.0,95,0.00,,,0.00,WUHU21623XXSP,2013-02-03 15:33:00,
2013-02-03 07:38:00,38.1,36.8,29.86,SSE,157,0.0,0.0,95,0.00,,,0.00,WUHU21623XXSP,2013-02-03 15:38:00,
2013-02-03 07:43:00,38.1,36.8,29.87,SSE,157,0.0,0.0,95,0.00,,,0.00,WUHU21623XXSP,2013-02-03 15:43:00,
2013-02-03 07:48:00,38.3,37.0,29.87,SE,135,0.0,0.0,95,0.00,,,0.00,WUHU21623XXSP,2013-02-03 15:48:00,
2013-02-03 07:53:00,38.3,37.0,29.87,SE,135,0.0,0.0,95,0.00,,,0.00,WUHU21623XXSP,2013-02-03 15:53:00,
2013-02-03 07:58:00,38.3,36.7,29.87,SSE,157,0.0,0.0,94,0.00,,,0.00,WUHU21623XXSP,2013-02-03 15:58:00,
2013-02-03 08:03:00,38.3,37.0,29.88,SE,135,0.0,0.0,95,0.00,,,0.00,WUHU21623XXSP,2013-02-03 16:03:00,
2013-02-03 08:08:00,38.3,37.0,29.88,SE,135,0.0,0.0,95,0.00,,,0.00,WUHU21623XXSP,2013-02-03 16:08:00,
2013-02-03 08:13:00,38.3,37.0,29.88,SE,135,0.0,0.0,95,0.00,,,0.00,WUHU21623XXSP,2013-02-03 16:13:00,
2013-02-03 08:18:00,38.3,36.7,29.88,SSE,157,0.0,0.0,94,0.00,,,0.00,WUHU21623XXSP,2013-02-03 16:18:00,
2013-02-03 08:23:00,38.5,37.1,29.88,SE,135,0.0,0.0,95,0.00,,,0.00,WUHU21623XXSP,2013-02-03 16:23:00,
2013-02-03 08:28:00,38.5,36.9,29.88,SE,135,0.0,0.0,94,0.00,,,0.00,WUHU21623XXSP,2013-02-03 16:28:00,
2013-02-03 08:33:00,38.5,37.1,29.87,East,90,0.0,0.0,95,0.00,,,0.00,WUHU21623XXSP,2013-02-03 16:33:00,
2013-02-03 08:38:00,38.5,37.1,29.87,East,90,0.0,14.1,95,0.00,,,0.00,WUHU21623XXSP,2013-02-03 16:38:00,
2013-02-03 08:43:00,38.7,37.3,29.87,East,90,0.0,14.1,95,0.00,,,0.00,WUHU21623XXSP,2013-02-03 16:43:00,
2013-02-03 08:48:00,38.8,37.5,29.88,East,90,0.0,0.0,95,0.00,,,0.00,WUHU21623XXSP,2013-02-03 16:48:00,
2013-02-03 08:53:00,39.0,37.4,29.88,East,90,0.0,0.0,94,0.00,,,0.00,WUHU21623XXSP,2013-02-03 16:53:00,
2013-02-03 08:58:00,39.0,37.7,29.87,East,90,0.0,0.0,95,0.00,,,0.00,WUHU21623XXSP,2013-02-03 16:58:00,
2013-02-03 09:03:00,39.0,37.7,29.88,East,90,0.0,0.0,95,0.00,,,0.00,WUHU21623XXSP,2013-02-03 17:03:00,
2013-02-03 09:08:00,39.2,37.9,29.88,East,90,0.0,0.0,95,0.00,,,0.00,WUHU21623XXSP,2013-02-03 17:08:00,
2013-02-03 09:13:00,39.4,37.8,29.88,East,90,0.0,0.0,94,0.00,,,0.00,WUHU21623XXSP,2013-02-03 17:13:00,
2013-02-03 09:18:00,39.4,38.0,29.88,ENE,67,0.0,0.0,95,0.00,,,0.00,WUHU21623XXSP,2013-02-03 17:18:00,
2013-02-03 09:23:00,39.6,38.2,29.88,ENE,67,0.0,0.0,95,0.00,,,0.00,WUHU21623XXSP,2013-02-03 17:23:00,
2013-02-03 09:28:00,39.7,38.4,29.88,NE,45,0.0,0.0,95,0.00,,,0.00,WUHU21623XXSP,2013-02-03 17:28:00,
2013-02-03 09:33:00,39.9,38.6,29.89,NE,45,0.0,0.0,95,0.00,,,0.00,WUHU21623XXSP,2013-02-03 17:33:00,
2013-02-03 09:38:00,39.9,38.6,29.88,NE,45,0.0,0.0,95,0.00,,,0.00,WUHU21623XXSP,2013-02-03 17:38:00,
2013-02-03 09:43:00,40.1,38.8,29.89,NE,45,0.0,0.0,95,0.00,,,0.00,WUHU21623XXSP,2013-02-03 17:43:00,
2013-02-03 09:48:00,40.3,38.9,29.89,NE,45,0.0,0.0,95,0.00,,,0.00,WUHU21623XXSP,2013-02-03 17:48:00,
2013-02-03 09:53:00,40.5,39.1,29.89,NE,45,0.0,0.0,95,0.00,,,0.00,WUHU21623XXSP,2013-02-03 17:53:00,
2013-02-03 09:58:00,40.6,39.3,29.89,NE,45,0.0,0.0,95,0.00,,,0.00,WUHU21623XXSP,2013-02-03 17:58:00,
2013-02-03 10:03:00,40.6,39.0,29.89,NE,45,0.0,0.0,94,0.00,,,0.00,WUHU21623XXSP,2013-02-03 18:03:00,
2013-02-03 10:08:00,40.8,39.5,29.89,NE,45,0.0,0.0,95,0.00,,,0.00,WUHU21623XXSP,2013-02-03 18:08:00,
2013-02-03 10:13:00,41.0,39.4,29.89,NE,45,0.0,14.1,94,0.00,,,0.00,WUHU21623XXSP,2013-02-03 18:13:00,
2013-02-03 10:18:00,41.2,39.6,29.89,NE,45,0.0,14.1,94,0.00,,,0.00,WUHU21623XXSP,2013-02-03 18:18:00,
2013-02-03 10:23:00,41.0,39.4,29.89,NNE,22,0.0,0.0,94,0.00,,,0.00,WUHU21623XXSP,2013-02-03 18:23:00,
2013-02-03 10:28:00,41.2,39.6,29.90,NNE,22,0.0,1.1,94,0.00,,,0.00,WUHU21623XXSP,2013-02-03 18:28:00,
2013-02-03 10:33:00,41.2,39.6,29.90,NNE,22,0.0,1.3,94,0.00,,,0.00,WUHU21623XXSP,2013-02-03 18:33:00,
2013-02-03 10:38:00,41.2,39.6,29.90,NNE,22,0.0,1.3,94,0.00,,,0.00,WUHU21623XXSP,2013-02-03 18:38:00,
2013-02-03 10:43:00,41.2,39.6,29.90,NNE,22,0.0,0.0,94,0.00,,,0.00,WUHU21623XXSP,2013-02-03 18:43:00,
2013-02-03 10:48:00,41.4,39.6,29.89,NNE,22,0.0,0.0,94,0.00,,,0.00,WUHU21623XXSP,2013-02-03 18:48:00,
2013-02-03 10:53:00,41.4,39.7,29.89,NNE,22,0.0,0.0,94,0.00,,,0.00,WUHU21623XXSP,2013-02-03 18:53:00,
2013-02-03 10:58:00,41.5,40.2,29.90,NNE,22,0.0,0.0,95,0.00,,,0.00,WUHU21623XXSP,2013-02-03 18:58:00,
2013-02-03 11:03:00,41.5,40.2,29.89,NNE,22,0.0,0.0,95,0.00,,,0.00,WUHU21623XXSP,2013-02-03 19:03:00,
2013-02-03 11:08:00,41.5,40.2,29.90,NNE,22,0.0,0.0,95,0.00,,,0.00,WUHU21623XXSP,2013-02-03 19:08:00,
2013-02-03 11:13:00,41.5,40.2,29.90,NNE,22,0.0,1.1,95,0.00,,,0.00,WUHU21623XXSP,2013-02-03 19:13:00,
2013-02-03 11:18:00,41.9,40.5,29.90,NNE,22,0.0,1.1,95,0.00,,,0.00,WUHU21623XXSP,2013-02-03 19:18:00,
2013-02-03 11:23:00,41.9,40.5,29.89,NNE,22,0.0,0.0,95,0.00,,,0.00,WUHU21623XXSP,2013-02-03 19:23:00,
2013-02-03 11:28:00,42.4,41.1,29.89,NNE,22,0.0,0.0,95,0.00,,,0.00,WUHU21623XXSP,2013-02-03 19:28:00,
2013-02-03 11:33:00,42.4,40.8,29.88,NNE,22,0.0,1.3,94,0.00,,,0.00,WUHU21623XXSP,2013-02-03 19:33:00,
2013-02-03 11:38:00,42.6,41.0,29.88,NE,45,1.1,2.0,94,0.00,,,0.00,WUHU21623XXSP,2013-02-03 19:38:00,
2013-02-03 11:43:00,42.6,41.0,29.87,NE,45,1.6,2.0,94,0.00,,,0.00,WUHU21623XXSP,2013-02-03 19:43:00,
2013-02-03 11:48:00,42.8,41.2,29.87,NE,45,0.0,1.6,94,0.00,,,0.00,WUHU21623XXSP,2013-02-03 19:48:00,
2013-02-03 11:53:00,43.0,41.4,29.87,NE,45,1.4,1.8,94,0.00,,,0.00,WUHU21623XXSP,2013-02-03 19:53:00,
2013-02-03 11:58:00,43.2,41.5,29.87,NE,45,0.0,1.8,94,0.00,,,0.00,WUHU21623XXSP,2013-02-03 19:58:00,
2013-02-03 12:03:00,43.3,41.5,29.87,NE,45,0.0,1.6,93,0.00,,,0.00,WUHU21623XXSP,2013-02-03 20:03:00,
2013-02-03 12:08:00,43.5,41.9,29.87,East,90,1.3,1.6,94,0.00,,,0.00,WUHU21623XXSP,2013-02-03 20:08:00,
2013-02-03 12:13:00,43.7,42.1,29.86,East,90,0.0,14.1,94,0.00,,,0.00,WUHU21623XXSP,2013-02-03 20:13:00,
2013-02-03 12:18:00,43.9,42.3,29.86,ESE,112,0.0,14.1,94,0.00,,,0.00,WUHU21623XXSP,2013-02-03 20:18:00,
2013-02-03 12:23:00,44.2,42.6,29.85,ESE,112,0.0,1.3,94,0.00,,,0.00,WUHU21623XXSP,2013-02-03 20:23:00,
2013-02-03 12:28:00,44.2,42.4,29.85,East,90,1.3,1.3,93,0.00,,,0.00,WUHU21623XXSP,2013-02-03 20:28:00,
2013-02-03 12:33:00,44.4,42.5,29.85,East,90,0.0,1.3,93,0.00,,,0.00,WUHU21623XXSP,2013-02-03 20:33:00,
2013-02-03 12:38:00,44.6,42.7,29.85,SE,135,0.0,1.1,93,0.00,,,0.00,WUHU21623XXSP,2013-02-03 20:38:00,
2013-02-03 12:43:00,45.0,43.1,29.85,SSE,157,0.0,1.1,93,0.00,,,0.00,WUHU21623XXSP,2013-02-03 20:43:00,
2013-02-03 12:48:00,45.1,43.3,29.85,SSE,157,0.0,1.1,93,0.00,,,0.00,WUHU21623XXSP,2013-02-03 20:48:00,
2013-02-03 12:53:00,45.3,43.4,29.84,SW,225,0.0,0.0,93,0.00,,,0.00,WUHU21623XXSP,2013-02-03 20:53:00,
2013-02-03 12:58:00,45.7,43.8,29.83,WSW,247,0.0,0.0,93,0.00,,,0.00,WUHU21623XXSP,2013-02-03 20:58:00,
2013-02-03 13:03:00,45.9,44.0,29.83,WSW,247,0.0,0.0,93,0.00,,,0.00,WUHU21623XXSP,2013-02-03 21:03:00,
2013-02-03 13:08:00,46.0,44.1,29.84,SW,225,0.0,0.0,93,0.00,,,0.00,WUHU21623XXSP,2013-02-03 21:08:00,
2013-02-03 13:13:00,46.2,44.3,29.83,South,180,2.9,2.9,93,0.00,,,0.00,WUHU21623XXSP,2013-02-03 21:13:00,
2013-02-03 13:18:00,46.4,44.5,29.83,South,176,1.2,2.9,93,0.00,,,0.00,WUHU21623XXSP,2013-02-03 21:18:00,
2013-02-03 13:23:00,46.6,44.4,29.83,South,180,2.0,2.5,92,0.00,,,0.00,WUHU21623XXSP,2013-02-03 21:23:00,
2013-02-03 13:28:00,46.8,44.6,29.83,WSW,247,1.7,2.5,92,0.00,,,0.00,WUHU21623XXSP,2013-02-03 21:28:00,
2013-02-03 13:33:00,46.9,44.8,29.84,WSW,247,0.0,2.0,92,0.00,,,0.00,WUHU21623XXSP,2013-02-03 21:33:00,
2013-02-03 13:38:00,47.1,45.0,29.83,WSW,247,1.4,2.0,92,0.00,,,0.00,WUHU21623XXSP,2013-02-03 21:38:00,
2013-02-03 13:43:00,47.1,44.7,29.83,WSW,247,0.0,2.0,91,0.00,,,0.00,WUHU21623XXSP,2013-02-03 21:43:00,
2013-02-03 13:48:00,47.3,44.9,29.82,South,180,0.0,1.6,91,0.00,,,0.00,WUHU21623XXSP,2013-02-03 21:48:00,
2013-02-03 13:53:00,47.3,44.9,29.82,WSW,247,1.0,1.6,91,0.00,,,0.00,WUHU21623XXSP,2013-02-03 21:53:00,
2013-02-03 13:58:00,47.5,45.0,29.82,SW,225,2.0,2.7,91,0.00,,,0.00,WUHU21623XXSP,2013-02-03 21:58:00,
2013-02-03 14:03:00,47.5,45.0,29.82,SW,218,1.5,2.7,91,0.00,,,0.00,WUHU21623XXSP,2013-02-03 22:03:00,
2013-02-03 14:08:00,47.7,45.2,29.82,SSW,202,0.0,2.2,91,0.00,,,0.00,WUHU21623XXSP,2013-02-03 22:08:00,
2013-02-03 14:13:00,47.8,45.4,29.82,SW,225,2.9,2.9,91,0.00,,,0.00,WUHU21623XXSP,2013-02-03 22:13:00,
2013-02-03 14:18:00,47.8,45.1,29.82,SW,225,0.0,2.9,90,0.00,,,0.00,WUHU21623XXSP,2013-02-03 22:18:00,
2013-02-03 14:23:00,47.8,45.1,29.81,SW,225,1.1,2.2,90,0.00,,,0.00,WUHU21623XXSP,2013-02-03 22:23:00,
2013-02-03 14:28:00,47.8,45.1,29.82,WNW,292,1.2,14.1,90,0.00,,,0.00,WUHU21623XXSP,2013-02-03 22:28:00,
2013-02-03 14:33:00,47.8,45.1,29.82,WNW,292,0.0,14.1,90,0.00,,,0.00,WUHU21623XXSP,2013-02-03 22:33:00,
2013-02-03 14:38:00,47.8,45.1,29.82,West,270,0.0,0.0,90,0.00,,,0.00,WUHU21623XXSP,2013-02-03 22:38:00,
2013-02-03 14:43:00,47.8,45.1,29.82,WNW,292,0.0,0.0,90,0.00,,,0.00,WUHU21623XXSP,2013-02-03 22:43:00,
2013-02-03 14:48:00,47.8,45.1,29.82,WNW,292,0.0,0.0,90,0.00,,,0.00,WUHU21623XXSP,2013-02-03 22:48:00,
2013-02-03 14:53:00,47.7,44.6,29.82,WNW,292,0.0,0.0,89,0.00,,,0.00,WUHU21623XXSP,2013-02-03 22:53:00,
2013-02-03 14:58:00,47.5,44.5,29.82,WNW,292,0.0,1.1,89,0.00,,,0.00,WUHU21623XXSP,2013-02-03 22:58:00,
2013-02-03 15:03:00,47.5,44.5,29.82,NNW,337,14.1,14.1,89,0.00,,,0.00,WUHU21623XXSP,2013-02-03 23:03:00,
2013-02-03 15:08:00,47.5,44.5,29.82,WNW,292,0.0,14.1,89,0.00,,,0.00,WUHU21623XXSP,2013-02-03 23:08:00,
2013-02-03 15:13:00,47.5,44.5,29.82,WNW,292,0.0,0.0,89,0.00,,,0.00,WUHU21623XXSP,2013-02-03 23:13:00,
2013-02-03 15:18:00,47.7,44.6,29.82,NW,315,0.0,0.0,89,0.00,,,0.00,WUHU21623XXSP,2013-02-03 23:18:00,
2013-02-03 15:23:00,47.7,44.6,29.82,NNW,337,14.1,14.1,89,0.00,,,0.00,WUHU21623XXSP,2013-02-03 23:23:00,
2013-02-03 15:28:00,47.5,44.5,29.83,NW,315,0.0,14.1,89,0.00,,,0.00,WUHU21623XXSP,2013-02-03 23:28:00,
2013-02-03 15:33:00,47.5,44.5,29.83,West,270,0.0,14.1,89,0.00,,,0.00,WUHU21623XXSP,2013-02-03 23:33:00,
2013-02-03 15:38:00,47.3,44.3,29.83,NNW,337,0.0,0.0,89,0.00,,,0.00,WUHU21623XXSP,2013-02-03 23:38:00,
2013-02-03 15:43:00,47.3,44.3,29.82,NNW,337,0.0,0.0,89,0.00,,,0.00,WUHU21623XXSP,2013-02-03 23:43:00,
2013-02-03 15:48:00,47.1,44.1,29.82,NNW,337,0.0,0.0,89,0.00,,,0.00,WUHU21623XXSP,2013-02-03 23:48:00,
2013-02-03 15:53:00,47.1,44.1,29.83,NNW,337,14.1,14.1,89,0.00,,,0.00,WUHU21623XXSP,2013-02-03 23:53:00,
2013-02-03 15:58:00,47.1,44.1,29.83,NNW,337,14.1,14.1,89,0.00,,,0.00,WUHU21623XXSP,2013-02-03 23:58:00,
2013-02-03 16:03:00,46.9,43.9,29.83,NNW,337,0.0,14.1,89,0.00,,,0.00,WUHU21623XXSP,2013-02-04 00:03:00,
2013-02-03 16:08:00,46.9,43.9,29.83,NNW,337,0.0,0.0,89,0.00,,,0.00,WUHU21623XXSP,2013-02-04 00:08:00,
2013-02-03 16:13:00,46.8,43.7,29.83,NNW,337,0.0,0.0,89,0.00,,,0.00,WUHU21623XXSP,2013-02-04 00:13:00,
2013-02-03 16:18:00,46.8,44.1,29.82,NNW,337,0.0,14.1,90,0.00,,,0.00,WUHU21623XXSP,2013-02-04 00:18:00,
2013-02-03 16:23:00,46.6,43.9,29.83,NNW,337,0.0,14.1,90,0.00,,,0.00,WUHU21623XXSP,2013-02-04 00:23:00,
2013-02-03 16:28:00,46.6,43.9,29.82,NNW,337,0.0,0.0,90,0.00,,,0.00,WUHU21623XXSP,2013-02-04 00:28:00,
2013-02-03 16:33:00,46.6,43.9,29.82,NNW,337,0.0,0.0,90,0.00,,,0.00,WUHU21623XXSP,2013-02-04 00:33:00,
2013-02-03 16:38:00,46.4,43.7,29.83,NNW,337,0.0,0.0,90,0.00,,,0.00,WUHU21623XXSP,2013-02-04 00:38:00,
2013-02-03 16:43:00,46.2,43.5,29.83,NNW,337,0.0,0.0,90,0.00,,,0.00,WUHU21623XXSP,2013-02-04 00:43:00,
2013-02-03 16:48:00,46.2,43.5,29.83,North,0,0.0,0.0,90,0.00,,,0.00,WUHU21623XXSP,2013-02-04 00:48:00,
2013-02-03 16:53:00,46.2,43.5,29.83,North,0,0.0,0.0,90,0.00,,,0.00,WUHU21623XXSP,2013-02-04 00:53:00,
2013-02-03 16:58:00,46.2,43.5,29.83,North,0,0.0,0.0,90,0.00,,,0.00,WUHU21623XXSP,2013-02-04 00:58:00,
2013-02-03 17:03:00,46.0,43.3,29.82,North,0,0.0,0.0,90,0.00,,,0.00,WUHU21623XXSP,2013-02-04 01:03:00,
2013-02-03 17:08:00,46.0,43.3,29.82,NNW,337,14.1,14.1,90,0.00,,,0.00,WUHU21623XXSP,2013-02-04 01:08:00,
2013-02-03 17:13:00,45.7,43.0,29.82,NNE,22,0.0,14.1,90,0.00,,,0.00,WUHU21623XXSP,2013-02-04 01:13:00,
2013-02-03 17:18:00,45.7,43.0,29.82,NNW,337,14.1,14.1,90,0.00,,,0.00,WUHU21623XXSP,2013-02-04 01:18:00,
2013-02-03 17:23:00,45.5,42.8,29.82,NNW,337,14.1,14.1,90,0.00,,,0.00,WUHU21623XXSP,2013-02-04 01:23:00,
2013-02-03 17:28:00,45.5,42.8,29.82,NNE,22,0.0,14.1,90,0.00,,,0.00,WUHU21623XXSP,2013-02-04 01:28:00,
2013-02-03 17:33:00,45.3,42.6,29.83,NNE,22,0.0,0.0,90,0.00,,,0.00,WUHU21623XXSP,2013-02-04 01:33:00,
2013-02-03 17:38:00,45.3,42.9,29.83,NNE,22,0.0,0.0,90,0.00,,,0.00,WUHU21623XXSP,2013-02-04 01:38:00,
2013-02-03 17:43:00,45.3,42.9,29.83,NNE,22,0.0,0.0,91,0.00,,,0.00,WUHU21623XXSP,2013-02-04 01:43:00,
2013-02-03 17:48:00,45.1,42.7,29.82,NNE,22,0.0,14.1,91,0.00,,,0.00,WUHU21623XXSP,2013-02-04 01:48:00,
2013-02-03 17:53:00,45.1,42.7,29.82,NNE,22,0.0,14.1,91,0.00,,,0.00,WUHU21623XXSP,2013-02-04 01:53:00,
2013-02-03 17:58:00,45.1,42.7,29.82,NNW,337,14.1,14.1,91,0.00,,,0.00,WUHU21623XXSP,2013-02-04 01:58:00,
2013-02-03 18:03:00,45.1,42.7,29.82,NNE,22,0.0,14.1,91,0.00,,,0.00,WUHU21623XXSP,2013-02-04 02:03:00,
2013-02-03 18:08:00,45.1,42.7,29.82,NNE,22,0.0,0.0,91,0.00,,,0.00,WUHU21623XXSP,2013-02-04 02:08:00,
2013-02-03 18:13:00,45.1,42.7,29.82,NNE,22,0.0,0.0,91,0.00,,,0.00,WUHU21623XXSP,2013-02-04 02:13:00,
2013-02-03 18:18:00,45.0,42.5,29.82,NE,45,0.0,0.0,91,0.00,,,0.00,WUHU21623XXSP,2013-02-04 02:18:00,
2013-02-03 18:23:00,45.0,42.5,29.82,NE,45,0.0,0.0,91,0.00,,,0.00,WUHU21623XXSP,2013-02-04 02:23:00,
2013-02-03 18:28:00,45.0,42.5,29.82,NE,45,0.0,0.0,91,0.00,,,0.00,WUHU21623XXSP,2013-02-04 02:28:00,
2013-02-03 18:33:00,44.8,42.4,29.82,NE,45,0.0,0.0,91,0.00,,,0.00,WUHU21623XXSP,2013-02-04 02:33:00,
2013-02-03 18:38:00,44.8,42.6,29.82,NE,45,0.0,0.0,92,0.00,,,0.00,WUHU21623XXSP,2013-02-04 02:38:00,
2013-02-03 18:43:00,44.8,42.4,29.82,NE,45,0.0,0.0,91,0.00,,,0.00,WUHU21623XXSP,2013-02-04 02:43:00,
2013-02-03 18:48:00,44.8,42.4,29.82,NE,45,0.0,0.0,91,0.00,,,0.00,WUHU21623XXSP,2013-02-04 02:48:00,
2013-02-03 18:53:00,44.8,42.4,29.82,NNW,337,14.1,14.1,91,0.00,,,0.00,WUHU21623XXSP,2013-02-04 02:53:00,
2013-02-03 18:58:00,44.8,42.4,29.82,NE,45,0.0,14.1,91,0.00,,,0.00,WUHU21623XXSP,2013-02-04 02:58:00,
2013-02-03 19:03:00,44.8,42.4,29.82,NE,45,0.0,0.0,91,0.00,,,0.00,WUHU21623XXSP,2013-02-04 03:03:00,
2013-02-03 19:08:00,44.8,42.2,29.82,NE,45,0.0,0.0,91,0.00,,,0.00,WUHU21623XXSP,2013-02-04 03:08:00,
2013-02-03 19:13:00,44.6,42.2,29.82,NE,45,0.0,0.0,91,0.00,,,0.00,WUHU21623XXSP,2013-02-04 03:13:00,
2013-02-03 19:18:00,44.6,42.2,29.82,NE,45,0.0,0.0,91,0.00,,,0.00,WUHU21623XXSP,2013-02-04 03:18:00,
2013-02-03 19:23:00,44.6,42.2,29.82,NNW,337,14.1,14.1,91,0.00,,,0.00,WUHU21623XXSP,2013-02-04 03:23:00,
2013-02-03 19:28:00,44.4,42.0,29.81,NE,45,0.0,14.1,91,0.00,,,0.00,WUHU21623XXSP,2013-02-04 03:28:00,
2013-02-03 19:33:00,44.4,42.3,29.81,NE,45,0.0,0.0,92,0.00,,,0.00,WUHU21623XXSP,2013-02-04 03:33:00,
2013-02-03 19:38:00,44.4,42.3,29.81,NE,45,0.0,0.0,92,0.00,,,0.00,WUHU21623XXSP,2013-02-04 03:38:00,
2013-02-03 19:43:00,44.4,42.3,29.82,NE,45,0.0,0.0,92,0.00,,,0.00,WUHU21623XXSP,2013-02-04 03:43:00,
2013-02-03 19:48:00,44.4,42.3,29.81,NE,45,0.0,0.0,92,0.00,,,0.00,WUHU21623XXSP,2013-02-04 03:48:00,
2013-02-03 19:53:00,44.4,42.3,29.81,NE,45,0.0,0.0,92,0.00,,,0.00,WUHU21623XXSP,2013-02-04 03:53:00,
2013-02-03 19:58:00,44.4,42.3,29.82,NNE,22,0.0,0.0,92,0.00,,,0.00,WUHU21623XXSP,2013-02-04 03:58:00,
2013-02-03 20:03:00,44.4,42.3,29.81,NNE,22,0.0,0.0,92,0.00,,,0.00,WUHU21623XXSP,2013-02-04 04:03:00,
2013-02-03 20:08:00,44.4,42.3,29.82,NNE,22,0.0,0.0,92,0.00,,,0.00,WUHU21623XXSP,2013-02-04 04:08:00,
2013-02-03 20:13:00,44.2,42.1,29.81,NNE,22,0.0,0.0,92,0.00,,,0.00,WUHU21623XXSP,2013-02-04 04:13:00,
2013-02-03 20:18:00,44.2,42.1,29.81,NNE,22,0.0,0.0,92,0.00,,,0.00,WUHU21623XXSP,2013-02-04 04:18:00,
2013-02-03 20:23:00,44.2,42.1,29.81,NNE,22,0.0,0.0,92,0.00,,,0.00,WUHU21623XXSP,2013-02-04 04:23:00,
2013-02-03 20:28:00,44.2,42.1,29.81,NNE,22,0.0,0.0,92,0.00,,,0.00,WUHU21623XXSP,2013-02-04 04:28:00,
2013-02-03 20:33:00,44.1,41.9,29.81,WNW,292,0.0,0.0,92,0.00,,,0.00,WUHU21623XXSP,2013-02-04 04:33:00,
2013-02-03 20:38:00,44.1,41.9,29.80,NW,315,0.0,0.0,92,0.00,,,0.00,WUHU21623XXSP,2013-02-04 04:38:00,
2013-02-03 20:43:00,44.1,41.9,29.80,NW,315,0.0,0.0,92,0.00,,,0.00,WUHU21623XXSP,2013-02-04 04:43:00,
2013-02-03 20:48:00,43.9,41.7,29.80,NW,315,0.0,0.0,92,0.00,,,0.00,WUHU21623XXSP,2013-02-04 04:48:00,
2013-02-03 20:53:00,43.9,41.7,29.80,NW,315,0.0,0.0,92,0.00,,,0.00,WUHU21623XXSP,2013-02-04 04:53:00,
2013-02-03 20:58:00,43.9,41.7,29.80,NW,315,0.0,0.0,92,0.00,,,0.00,WUHU21623XXSP,2013-02-04 04:58:00,
2013-02-03 21:00:00,43.9,41.7,29.80,NNW,337,14.1,14.1,92,0.00,,,0.00,WUHU21623XXSP,2013-02-04 05:00:00,
2013-02-03 21:01:00,43.9,41.7,29.80,NNW,337,14.1,14.1,92,0.00,,,0.00,WUHU21623XXSP,2013-02-04 05:01:00,
2013-02-03 21:02:00,43.9,41.7,29.80,WNW,292,0.0,14.1,92,0.00,,,0.00,WUHU21623XXSP,2013-02-04 05:02:00,
2013-02-03 21:07:00,43.9,41.7,29.80,NNW,337,14.1,14.1,92,0.00,,,0.00,WUHU21623XXSP,2013-02-04 05:07:00,
2013-02-03 21:12:00,43.7,41.5,29.81,WNW,292,0.0,14.1,92,0.00,,,0.00,WUHU21623XXSP,2013-02-04 05:12:00,
2013-02-03 21:17:00,43.5,41.4,29.81,NW,315,0.0,1.3,92,0.00,,,0.00,WUHU21623XXSP,2013-02-04 05:17:00,
2013-02-03 21:22:00,43.5,41.4,29.81,WNW,292,0.0,1.3,92,0.00,,,0.00,WUHU21623XXSP,2013-02-04 05:22:00,
2013-02-03 21:27:00,43.5,41.4,29.81,WNW,292,0.0,0.0,92,0.00,,,0.00,WUHU21623XXSP,2013-02-04 05:27:00,
2013-02-03 21:32:00,43.5,41.4,29.81,WNW,292,1.1,1.1,92,0.00,,,0.00,WUHU21623XXSP,2013-02-04 05:32:00,
2013-02-03 21:37:00,43.5,41.4,29.82,NW,315,0.0,1.1,92,0.00,,,0.00,WUHU21623XXSP,2013-02-04 05:37:00,
2013-02-03 21:42:00,43.5,41.4,29.81,NW,315,0.0,0.0,92,0.00,,,0.00,WUHU21623XXSP,2013-02-04 05:42:00,
2013-02-03 21:47:00,43.5,41.4,29.82,NW,315,0.0,0.0,92,0.00,,,0.00,WUHU21623XXSP,2013-02-04 05:47:00,
2013-02-03 21:52:00,43.5,41.6,29.81,NW,315,0.0,0.0,93,0.00,,,0.00,WUHU21623XXSP,2013-02-04 05:52:00,
2013-02-03 21:57:00,43.5,41.6,29.81,NW,315,0.0,0.0,93,0.00,,,0.00,WUHU21623XXSP,2013-02-04 05:57:00,
2013-02-03 22:02:00,43.5,41.6,29.82,NW,315,0.0,0.0,93,0.00,,,0.00,WUHU21623XXSP,2013-02-04 06:02:00,
2013-02-03 22:07:00,43.5,41.6,29.81,WNW,292,0.0,0.0,93,0.00,,,0.00,WUHU21623XXSP,2013-02-04 06:07:00,
2013-02-03 22:12:00,43.3,41.5,29.81,NW,315,0.0,0.0,93,0.00,,,0.00,WUHU21623XXSP,2013-02-04 06:12:00,
2013-02-03 22:17:00,43.3,41.5,29.81,NW,315,0.0,0.0,93,0.00,,,0.00,WUHU21623XXSP,2013-02-04 06:17:00,
2013-02-03 22:22:00,43.5,41.6,29.81,WNW,292,0.0,0.0,93,0.00,,,0.00,WUHU21623XXSP,2013-02-04 06:22:00,
2013-02-03 22:27:00,43.3,41.5,29.81,WNW,292,0.0,0.0,93,0.00,,,0.00,WUHU21623XXSP,2013-02-04 06:27:00,
2013-02-03 22:32:00,43.3,41.5,29.80,WNW,292,0.0,0.0,93,0.00,,,0.00,WUHU21623XXSP,2013-02-04 06:32:00,
2013-02-03 22:37:00,43.3,41.5,29.80,NW,315,0.0,0.0,93,0.00,,,0.00,WUHU21623XXSP,2013-02-04 06:37:00,
2013-02-03 22:42:00,43.3,41.5,29.80,NW,315,0.0,0.0,93,0.00,,,0.00,WUHU21623XXSP,2013-02-04 06:42:00,
2013-02-03 22:47:00,43.3,41.5,29.80,NW,315,0.0,0.0,93,0.00,,,0.00,WUHU21623XXSP,2013-02-04 06:47:00,
2013-02-03 22:52:00,43.3,41.5,29.80,NW,315,0.0,0.0,93,0.00,,,0.00,WUHU21623XXSP,2013-02-04 06:52:00,
2013-02-03 22:57:00,43.2,41.3,29.80,NW,315,0.0,0.0,93,0.00,,,0.00,WUHU21623XXSP,2013-02-04 06:57:00,
2013-02-03 23:02:00,43.2,41.3,29.80,WNW,292,0.0,0.0,93,0.00,,,0.00,WUHU21623XXSP,2013-02-04 07:02:00,
2013-02-03 23:07:00,43.2,41.3,29.80,WNW,292,0.0,0.0,93,0.00,,,0.00,WUHU21623XXSP,2013-02-04 07:07:00,
2013-02-03 23:12:00,43.2,41.3,29.80,NW,315,0.0,0.0,93,0.00,,,0.00,WUHU21623XXSP,2013-02-04 07:12:00,
2013-02-03 23:17:00,43.2,41.3,29.80,WNW,292,0.0,0.0,93,0.00,,,0.00,WUHU21623XXSP,2013-02-04 07:17:00,
2013-02-03 23:22:00,43.2,41.3,29.80,WNW,292,0.0,0.0,93,0.00,,,0.00,WUHU21623XXSP,2013-02-04 07:22:00,
2013-02-03 23:27:00,43.2,41.3,29.80,WNW,292,0.0,0.0,93,0.00,,,0.00,WUHU21623XXSP,2013-02-04 07:27:00,
2013-02-03 23:32:00,43.0,41.1,29.80,WNW,292,0.0,0.0,93,0.00,,,0.00,WUHU21623XXSP,2013-02-04 07:32:00,
2013-02-03 23:37:00,43.0,41.1,29.79,WNW,292,0.0,0.0,93,0.00,,,0.00,WUHU21623XXSP,2013-02-04 07:37:00,
2013-02-03 23:42:00,43.0,41.1,29.79,NW,315,0.0,0.0,93,0.00,,,0.00,WUHU21623XXSP,2013-02-04 07:42:00,
2013-02-03 23:47:00,42.6,40.7,29.79,WNW,292,0.0,0.0,93,0.00,,,0.00,WUHU21623XXSP,2013-02-04 07:47:00,
2013-02-03 23:52:00,42.6,40.5,29.79,WNW,292,0.0,0.0,92,0.00,,,0.00,WUHU21623XXSP,2013-02-04 07:52:00,
2013-02-03 23:57:00,42.4,40.5,29.79,WNW,292,0.0,0.0,93,0.00,,,0.00,WUHU21623XXSP,2013-02-04 07:57:00,